sensor_id;sensor_type;location;lat;lon;timestamp;P1;durP1;ratioP1;P2;durP2;ratioP2
3074;SDS011;1548;51.716;8.748;2022-10-17T00:01:41;651.83;;;299.87;;
3074;SDS011;1548;51.716;8.748;2022-10-17T00:04:06;639.73;;;281.23;;
3074;SDS011;1548;51.716;8.748;2022-10-17T00:06:32;661.13;;;341.43;;
3074;SDS011;1548;51.716;8.748;2022-10-17T00:08:57;626.97;;;251.53;;
3074;SDS011;1548;51.716;8.748;2022-10-17T00:11:23;637.77;;;279.53;;
3074;SDS011;1548;51.716;8.748;2022-10-17T00:13:49;622.53;;;233.83;;
3074;SDS011;1548;51.716;8.748;2022-10-17T00:16:25;626.30;;;244.73;;
3074;SDS011;1548;51.716;8.748;2022-10-17T00:18:52;636.90;;;275.37;;
3074;SDS011;1548;51.716;8.748;2022-10-17T00:21:19;622.07;;;261.47;;
3074;SDS011;1548;51.716;8.748;2022-10-17T00:23:45;638.63;;;270.97;;
3074;SDS011;1548;51.716;8.748;2022-10-17T00:26:11;634.60;;;275.17;;
3074;SDS011;1548;51.716;8.748;2022-10-17T00:28:37;632.13;;;260.13;;
3074;SDS011;1548;51.716;8.748;2022-10-17T00:31:04;646.13;;;245.40;;
3074;SDS011;1548;51.716;8.748;2022-10-17T00:33:32;632.37;;;267.67;;
3074;SDS011;1548;51.716;8.748;2022-10-17T00:36:06;643.77;;;297.83;;
3074;SDS011;1548;51.716;8.748;2022-10-17T00:38:34;652.73;;;318.63;;
3074;SDS011;1548;51.716;8.748;2022-10-17T00:41:01;622.77;;;324.83;;
3074;SDS011;1548;51.716;8.748;2022-10-17T00:43:28;641.33;;;282.57;;
3074;SDS011;1548;51.716;8.748;2022-10-17T00:45:54;633.03;;;266.93;;
3074;SDS011;1548;51.716;8.748;2022-10-17T00:48:20;649.97;;;315.20;;
3074;SDS011;1548;51.716;8.748;2022-10-17T00:50:48;644.07;;;302.30;;
3074;SDS011;1548;51.716;8.748;2022-10-17T00:53:15;645.57;;;307.00;;
3074;SDS011;1548;51.716;8.748;2022-10-17T00:55:43;641.07;;;287.73;;
3074;SDS011;1548;51.716;8.748;2022-10-17T00:58:13;641.00;;;296.63;;
3074;SDS011;1548;51.716;8.748;2022-10-17T01:00:40;647.33;;;319.57;;
3074;SDS011;1548;51.716;8.748;2022-10-17T01:03:06;642.40;;;299.40;;
3074;SDS011;1548;51.716;8.748;2022-10-17T01:05:32;646.27;;;307.97;;
3074;SDS011;1548;51.716;8.748;2022-10-17T01:07:58;634.30;;;255.40;;
3074;SDS011;1548;51.716;8.748;2022-10-17T01:10:28;555.40;;;224.63;;
3074;SDS011;1548;51.716;8.748;2022-10-17T01:13:33;457.83;;;117.40;;
3074;SDS011;1548;51.716;8.748;2022-10-17T01:16:24;451.73;;;80.33;;
3074;SDS011;1548;51.716;8.748;2022-10-17T01:22:08;630.83;;;257.17;;
3074;SDS011;1548;51.716;8.748;2022-10-17T01:27:19;635.83;;;266.17;;
3074;SDS011;1548;51.716;8.748;2022-10-17T01:30:27;644.07;;;265.90;;
3074;SDS011;1548;51.716;8.748;2022-10-17T01:36:11;637.10;;;271.97;;
3074;SDS011;1548;51.716;8.748;2022-10-17T01:41:41;646.30;;;287.03;;
3074;SDS011;1548;51.716;8.748;2022-10-17T01:44:19;647.27;;;310.80;;
3074;SDS011;1548;51.716;8.748;2022-10-17T01:46:51;640.90;;;285.43;;
3074;SDS011;1548;51.716;8.748;2022-10-17T01:49:23;641.80;;;285.47;;
3074;SDS011;1548;51.716;8.748;2022-10-17T01:51:56;652.67;;;308.00;;
3074;SDS011;1548;51.716;8.748;2022-10-17T01:54:52;644.83;;;284.73;;
3074;SDS011;1548;51.716;8.748;2022-10-17T01:57:38;641.50;;;368.90;;
3074;SDS011;1548;51.716;8.748;2022-10-17T02:00:08;629.77;;;241.63;;
3074;SDS011;1548;51.716;8.748;2022-10-17T02:02:37;670.70;;;387.97;;
3074;SDS011;1548;51.716;8.748;2022-10-17T02:05:04;641.20;;;284.43;;
3074;SDS011;1548;51.716;8.748;2022-10-17T02:07:30;644.03;;;368.07;;
3074;SDS011;1548;51.716;8.748;2022-10-17T02:09:55;645.33;;;417.93;;
3074;SDS011;1548;51.716;8.748;2022-10-17T02:15:09;632.83;;;273.93;;
3074;SDS011;1548;51.716;8.748;2022-10-17T02:17:56;628.80;;;286.30;;
3074;SDS011;1548;51.716;8.748;2022-10-17T02:23:36;648.97;;;316.47;;
3074;SDS011;1548;51.716;8.748;2022-10-17T02:29:30;628.57;;;261.63;;
3074;SDS011;1548;51.716;8.748;2022-10-17T02:32:05;651.73;;;325.83;;
3074;SDS011;1548;51.716;8.748;2022-10-17T02:37:04;649.23;;;315.13;;
3074;SDS011;1548;51.716;8.748;2022-10-17T02:39:31;690.43;;;467.63;;
3074;SDS011;1548;51.716;8.748;2022-10-17T02:41:59;661.77;;;359.20;;
3074;SDS011;1548;51.716;8.748;2022-10-17T02:44:27;644.23;;;298.33;;
3074;SDS011;1548;51.716;8.748;2022-10-17T02:46:56;656.23;;;344.40;;
3074;SDS011;1548;51.716;8.748;2022-10-17T02:49:43;646.03;;;305.90;;
3074;SDS011;1548;51.716;8.748;2022-10-17T02:55:15;590.73;;;283.07;;
3074;SDS011;1548;51.716;8.748;2022-10-17T02:57:52;635.93;;;274.53;;
3074;SDS011;1548;51.716;8.748;2022-10-17T03:00:21;651.73;;;328.23;;
3074;SDS011;1548;51.716;8.748;2022-10-17T03:02:49;641.27;;;295.70;;
3074;SDS011;1548;51.716;8.748;2022-10-17T03:05:23;652.07;;;337.50;;
3074;SDS011;1548;51.716;8.748;2022-10-17T03:07:51;646.93;;;317.03;;
3074;SDS011;1548;51.716;8.748;2022-10-17T03:10:18;649.90;;;330.73;;
3074;SDS011;1548;51.716;8.748;2022-10-17T03:12:44;655.73;;;342.33;;
3074;SDS011;1548;51.716;8.748;2022-10-17T03:15:10;684.90;;;445.10;;
3074;SDS011;1548;51.716;8.748;2022-10-17T03:17:36;657.33;;;353.80;;
3074;SDS011;1548;51.716;8.748;2022-10-17T03:20:03;666.37;;;393.33;;
3074;SDS011;1548;51.716;8.748;2022-10-17T03:22:31;633.57;;;278.03;;
3074;SDS011;1548;51.716;8.748;2022-10-17T03:24:57;690.03;;;458.47;;
3074;SDS011;1548;51.716;8.748;2022-10-17T03:27:23;674.87;;;404.53;;
3074;SDS011;1548;51.716;8.748;2022-10-17T03:29:48;639.67;;;301.87;;
3074;SDS011;1548;51.716;8.748;2022-10-17T03:32:14;692.93;;;462.63;;
3074;SDS011;1548;51.716;8.748;2022-10-17T03:34:39;639.83;;;305.97;;
3074;SDS011;1548;51.716;8.748;2022-10-17T03:37:05;654.50;;;322.30;;
3074;SDS011;1548;51.716;8.748;2022-10-17T03:39:31;648.03;;;322.47;;
3074;SDS011;1548;51.716;8.748;2022-10-17T03:41:56;663.87;;;372.10;;
3074;SDS011;1548;51.716;8.748;2022-10-17T03:44:22;684.93;;;460.20;;
3074;SDS011;1548;51.716;8.748;2022-10-17T03:46:47;657.67;;;353.37;;
3074;SDS011;1548;51.716;8.748;2022-10-17T03:49:13;644.63;;;313.83;;
3074;SDS011;1548;51.716;8.748;2022-10-17T03:51:38;676.97;;;420.33;;
3074;SDS011;1548;51.716;8.748;2022-10-17T03:54:05;649.27;;;337.10;;
3074;SDS011;1548;51.716;8.748;2022-10-17T03:56:31;634.23;;;286.13;;
3074;SDS011;1548;51.716;8.748;2022-10-17T03:58:56;650.37;;;349.43;;
3074;SDS011;1548;51.716;8.748;2022-10-17T04:01:22;626.20;;;296.63;;
3074;SDS011;1548;51.716;8.748;2022-10-17T04:03:49;641.03;;;309.43;;
3074;SDS011;1548;51.716;8.748;2022-10-17T04:06:15;634.70;;;276.40;;
3074;SDS011;1548;51.716;8.748;2022-10-17T04:08:41;653.23;;;336.33;;
3074;SDS011;1548;51.716;8.748;2022-10-17T04:11:07;656.97;;;356.23;;
3074;SDS011;1548;51.716;8.748;2022-10-17T04:13:33;637.40;;;288.40;;
3074;SDS011;1548;51.716;8.748;2022-10-17T04:16:06;529.30;;;230.37;;
3074;SDS011;1548;51.716;8.748;2022-10-17T04:18:32;630.63;;;268.60;;
3074;SDS011;1548;51.716;8.748;2022-10-17T04:21:02;649.23;;;313.97;;
3074;SDS011;1548;51.716;8.748;2022-10-17T04:23:28;666.40;;;400.27;;
3074;SDS011;1548;51.716;8.748;2022-10-17T04:25:55;672.23;;;400.13;;
3074;SDS011;1548;51.716;8.748;2022-10-17T04:28:21;684.07;;;442.80;;
3074;SDS011;1548;51.716;8.748;2022-10-17T04:30:54;648.10;;;308.07;;
3074;SDS011;1548;51.716;8.748;2022-10-17T04:33:21;651.07;;;327.90;;
3074;SDS011;1548;51.716;8.748;2022-10-17T04:35:54;642.87;;;299.57;;
3074;SDS011;1548;51.716;8.748;2022-10-17T04:38:23;656.97;;;338.43;;
3074;SDS011;1548;51.716;8.748;2022-10-17T04:40:49;629.23;;;253.17;;
3074;SDS011;1548;51.716;8.748;2022-10-17T04:43:15;652.67;;;318.20;;
3074;SDS011;1548;51.716;8.748;2022-10-17T04:45:41;659.97;;;341.17;;
3074;SDS011;1548;51.716;8.748;2022-10-17T04:48:07;658.07;;;337.97;;
3074;SDS011;1548;51.716;8.748;2022-10-17T04:50:32;654.80;;;325.63;;
3074;SDS011;1548;51.716;8.748;2022-10-17T04:52:58;643.30;;;294.37;;
3074;SDS011;1548;51.716;8.748;2022-10-17T04:55:24;642.77;;;279.53;;
3074;SDS011;1548;51.716;8.748;2022-10-17T04:57:49;634.47;;;269.93;;
3074;SDS011;1548;51.716;8.748;2022-10-17T05:00:15;648.70;;;312.93;;
3074;SDS011;1548;51.716;8.748;2022-10-17T05:02:41;630.20;;;327.43;;
3074;SDS011;1548;51.716;8.748;2022-10-17T05:05:06;652.30;;;312.97;;
3074;SDS011;1548;51.716;8.748;2022-10-17T05:07:32;630.53;;;262.47;;
3074;SDS011;1548;51.716;8.748;2022-10-17T05:09:58;637.37;;;268.33;;
3074;SDS011;1548;51.716;8.748;2022-10-17T05:12:24;601.90;;;213.13;;
3074;SDS011;1548;51.716;8.748;2022-10-17T05:14:50;640.80;;;280.43;;
3074;SDS011;1548;51.716;8.748;2022-10-17T05:17:15;648.57;;;325.90;;
3074;SDS011;1548;51.716;8.748;2022-10-17T05:19:41;667.60;;;357.83;;
3074;SDS011;1548;51.716;8.748;2022-10-17T05:22:07;641.10;;;287.47;;
3074;SDS011;1548;51.716;8.748;2022-10-17T05:24:33;641.13;;;297.20;;
3074;SDS011;1548;51.716;8.748;2022-10-17T05:26:58;645.60;;;299.73;;
3074;SDS011;1548;51.716;8.748;2022-10-17T05:29:24;674.37;;;397.80;;
3074;SDS011;1548;51.716;8.748;2022-10-17T05:31:49;650.27;;;336.60;;
3074;SDS011;1548;51.716;8.748;2022-10-17T05:34:15;691.07;;;448.23;;
3074;SDS011;1548;51.716;8.748;2022-10-17T05:36:41;646.73;;;328.90;;
3074;SDS011;1548;51.716;8.748;2022-10-17T05:39:06;639.03;;;289.67;;
3074;SDS011;1548;51.716;8.748;2022-10-17T05:41:32;642.10;;;305.53;;
3074;SDS011;1548;51.716;8.748;2022-10-17T05:43:58;639.47;;;287.80;;
3074;SDS011;1548;51.716;8.748;2022-10-17T05:46:24;660.60;;;363.40;;
3074;SDS011;1548;51.716;8.748;2022-10-17T05:48:50;674.40;;;405.33;;
3074;SDS011;1548;51.716;8.748;2022-10-17T05:51:16;660.03;;;347.90;;
3074;SDS011;1548;51.716;8.748;2022-10-17T05:53:42;671.33;;;396.70;;
3074;SDS011;1548;51.716;8.748;2022-10-17T05:56:08;658.63;;;334.63;;
3074;SDS011;1548;51.716;8.748;2022-10-17T05:58:38;661.17;;;357.60;;
3074;SDS011;1548;51.716;8.748;2022-10-17T06:01:05;665.47;;;364.63;;
3074;SDS011;1548;51.716;8.748;2022-10-17T06:03:32;646.53;;;314.03;;
3074;SDS011;1548;51.716;8.748;2022-10-17T06:06:02;662.77;;;357.67;;
3074;SDS011;1548;51.716;8.748;2022-10-17T06:08:29;654.43;;;324.37;;
3074;SDS011;1548;51.716;8.748;2022-10-17T06:10:55;628.13;;;257.17;;
3074;SDS011;1548;51.716;8.748;2022-10-17T06:13:20;664.63;;;372.13;;
3074;SDS011;1548;51.716;8.748;2022-10-17T06:15:46;655.23;;;335.07;;
3074;SDS011;1548;51.716;8.748;2022-10-17T06:18:12;641.80;;;295.47;;
3074;SDS011;1548;51.716;8.748;2022-10-17T06:20:37;645.33;;;310.30;;
3074;SDS011;1548;51.716;8.748;2022-10-17T06:23:03;650.20;;;327.10;;
3074;SDS011;1548;51.716;8.748;2022-10-17T06:25:30;636.53;;;286.30;;
3074;SDS011;1548;51.716;8.748;2022-10-17T06:27:56;687.87;;;443.23;;
3074;SDS011;1548;51.716;8.748;2022-10-17T06:30:21;673.87;;;383.57;;
3074;SDS011;1548;51.716;8.748;2022-10-17T06:32:47;699.87;;;449.63;;
3074;SDS011;1548;51.716;8.748;2022-10-17T06:35:13;690.73;;;440.30;;
3074;SDS011;1548;51.716;8.748;2022-10-17T06:37:38;653.23;;;311.07;;
3074;SDS011;1548;51.716;8.748;2022-10-17T06:40:05;697.07;;;458.70;;
3074;SDS011;1548;51.716;8.748;2022-10-17T06:42:32;649.80;;;305.57;;
3074;SDS011;1548;51.716;8.748;2022-10-17T06:44:58;644.47;;;301.27;;
3074;SDS011;1548;51.716;8.748;2022-10-17T06:47:24;683.70;;;426.80;;
3074;SDS011;1548;51.716;8.748;2022-10-17T06:49:49;703.20;;;488.37;;
3074;SDS011;1548;51.716;8.748;2022-10-17T06:52:15;639.20;;;270.47;;
3074;SDS011;1548;51.716;8.748;2022-10-17T06:54:41;668.63;;;394.73;;
3074;SDS011;1548;51.716;8.748;2022-10-17T06:57:07;658.20;;;356.60;;
3074;SDS011;1548;51.716;8.748;2022-10-17T06:59:33;642.43;;;286.43;;
3074;SDS011;1548;51.716;8.748;2022-10-17T07:01:59;634.90;;;291.40;;
3074;SDS011;1548;51.716;8.748;2022-10-17T07:04:29;702.23;;;506.53;;
3074;SDS011;1548;51.716;8.748;2022-10-17T07:06:55;719.37;;;546.83;;
3074;SDS011;1548;51.716;8.748;2022-10-17T07:09:20;661.13;;;353.63;;
3074;SDS011;1548;51.716;8.748;2022-10-17T07:11:47;703.53;;;527.67;;
3074;SDS011;1548;51.716;8.748;2022-10-17T07:14:12;676.80;;;402.37;;
3074;SDS011;1548;51.716;8.748;2022-10-17T07:16:38;654.07;;;329.40;;
3074;SDS011;1548;51.716;8.748;2022-10-17T07:19:03;710.63;;;524.07;;
3074;SDS011;1548;51.716;8.748;2022-10-17T07:21:29;694.73;;;463.00;;
3074;SDS011;1548;51.716;8.748;2022-10-17T07:23:55;683.27;;;429.80;;
3074;SDS011;1548;51.716;8.748;2022-10-17T07:26:21;692.77;;;464.23;;
3074;SDS011;1548;51.716;8.748;2022-10-17T07:28:49;706.87;;;528.47;;
3074;SDS011;1548;51.716;8.748;2022-10-17T07:31:17;684.57;;;445.83;;
3074;SDS011;1548;51.716;8.748;2022-10-17T07:33:44;695.53;;;489.60;;
3074;SDS011;1548;51.716;8.748;2022-10-17T07:36:10;693.93;;;480.83;;
3074;SDS011;1548;51.716;8.748;2022-10-17T07:38:36;717.57;;;551.23;;
3074;SDS011;1548;51.716;8.748;2022-10-17T07:41:04;696.43;;;486.13;;
3074;SDS011;1548;51.716;8.748;2022-10-17T07:43:31;705.87;;;507.03;;
3074;SDS011;1548;51.716;8.748;2022-10-17T07:45:57;661.23;;;477.70;;
3074;SDS011;1548;51.716;8.748;2022-10-17T07:48:25;698.80;;;485.03;;
3074;SDS011;1548;51.716;8.748;2022-10-17T07:50:51;717.83;;;563.17;;
3074;SDS011;1548;51.716;8.748;2022-10-17T07:53:16;721.60;;;571.07;;
3074;SDS011;1548;51.716;8.748;2022-10-17T07:55:43;725.73;;;564.10;;
3074;SDS011;1548;51.716;8.748;2022-10-17T07:58:10;668.03;;;528.43;;
3074;SDS011;1548;51.716;8.748;2022-10-17T08:00:36;636.03;;;433.27;;
3074;SDS011;1548;51.716;8.748;2022-10-17T08:03:02;703.40;;;567.30;;
3074;SDS011;1548;51.716;8.748;2022-10-17T08:05:29;733.37;;;588.90;;
3074;SDS011;1548;51.716;8.748;2022-10-17T08:07:55;733.40;;;609.60;;
3074;SDS011;1548;51.716;8.748;2022-10-17T08:10:20;671.27;;;490.43;;
3074;SDS011;1548;51.716;8.748;2022-10-17T08:12:51;652.90;;;502.70;;
3074;SDS011;1548;51.716;8.748;2022-10-17T08:15:21;720.23;;;570.57;;
3074;SDS011;1548;51.716;8.748;2022-10-17T08:17:48;660.43;;;437.17;;
3074;SDS011;1548;51.716;8.748;2022-10-17T08:20:13;580.80;;;414.53;;
3074;SDS011;1548;51.716;8.748;2022-10-17T08:22:39;459.77;;;230.03;;
3074;SDS011;1548;51.716;8.748;2022-10-17T08:25:05;468.70;;;111.73;;
3074;SDS011;1548;51.716;8.748;2022-10-17T08:27:33;432.83;;;187.03;;
3074;SDS011;1548;51.716;8.748;2022-10-17T08:29:59;463.63;;;110.93;;
3074;SDS011;1548;51.716;8.748;2022-10-17T08:32:25;517.10;;;157.60;;
3074;SDS011;1548;51.716;8.748;2022-10-17T08:34:54;615.37;;;320.23;;
3074;SDS011;1548;51.716;8.748;2022-10-17T08:37:22;485.10;;;91.07;;
3074;SDS011;1548;51.716;8.748;2022-10-17T08:39:47;513.60;;;301.50;;
3074;SDS011;1548;51.716;8.748;2022-10-17T08:42:30;711.63;;;605.50;;
3074;SDS011;1548;51.716;8.748;2022-10-17T08:45:23;409.40;;;161.00;;
3074;SDS011;1548;51.716;8.748;2022-10-17T08:48:01;505.80;;;92.47;;
3074;SDS011;1548;51.716;8.748;2022-10-17T08:50:34;508.27;;;99.77;;
3074;SDS011;1548;51.716;8.748;2022-10-17T08:53:11;505.67;;;92.43;;
3074;SDS011;1548;51.716;8.748;2022-10-17T08:55:52;503.70;;;94.20;;
3074;SDS011;1548;51.716;8.748;2022-10-17T08:58:22;527.40;;;105.80;;
3074;SDS011;1548;51.716;8.748;2022-10-17T09:01:03;505.00;;;95.73;;
3074;SDS011;1548;51.716;8.748;2022-10-17T09:03:57;487.17;;;80.20;;
3074;SDS011;1548;51.716;8.748;2022-10-17T09:06:43;514.30;;;139.27;;
3074;SDS011;1548;51.716;8.748;2022-10-17T09:09:36;328.07;;;65.97;;
3074;SDS011;1548;51.716;8.748;2022-10-17T09:12:31;669.80;;;517.70;;
3074;SDS011;1548;51.716;8.748;2022-10-17T09:15:07;683.30;;;494.70;;
3074;SDS011;1548;51.716;8.748;2022-10-17T09:17:57;640.20;;;462.77;;
3074;SDS011;1548;51.716;8.748;2022-10-17T09:20:44;652.17;;;481.83;;
3074;SDS011;1548;51.716;8.748;2022-10-17T09:23:16;594.70;;;475.73;;
3074;SDS011;1548;51.716;8.748;2022-10-17T09:25:57;694.27;;;521.60;;
3074;SDS011;1548;51.716;8.748;2022-10-17T09:30:55;566.00;;;363.40;;
3074;SDS011;1548;51.716;8.748;2022-10-17T09:33:27;665.33;;;512.60;;
3074;SDS011;1548;51.716;8.748;2022-10-17T09:35:56;576.40;;;354.77;;
3074;SDS011;1548;51.716;8.748;2022-10-17T09:38:24;562.70;;;382.07;;
3074;SDS011;1548;51.716;8.748;2022-10-17T09:40:56;682.00;;;591.07;;
3074;SDS011;1548;51.716;8.748;2022-10-17T09:43:25;507.63;;;92.53;;
3074;SDS011;1548;51.716;8.748;2022-10-17T09:49:04;511.60;;;109.67;;
3074;SDS011;1548;51.716;8.748;2022-10-17T09:51:36;509.47;;;98.10;;
3074;SDS011;1548;51.716;8.748;2022-10-17T09:54:03;502.27;;;92.43;;
3074;SDS011;1548;51.716;8.748;2022-10-17T09:59:34;507.47;;;97.70;;
3074;SDS011;1548;51.716;8.748;2022-10-17T10:04:59;499.80;;;87.37;;
3074;SDS011;1548;51.716;8.748;2022-10-17T10:07:26;457.53;;;92.33;;
3074;SDS011;1548;51.716;8.748;2022-10-17T10:09:53;356.37;;;106.07;;
3074;SDS011;1548;51.716;8.748;2022-10-17T10:12:21;363.53;;;109.67;;
3074;SDS011;1548;51.716;8.748;2022-10-17T10:14:56;404.23;;;142.50;;
3074;SDS011;1548;51.716;8.748;2022-10-17T10:19:57;484.33;;;85.97;;
3074;SDS011;1548;51.716;8.748;2022-10-17T10:22:23;501.33;;;93.93;;
3074;SDS011;1548;51.716;8.748;2022-10-17T10:27:41;479.87;;;287.70;;
3074;SDS011;1548;51.716;8.748;2022-10-17T10:30:18;724.87;;;622.27;;
3074;SDS011;1548;51.716;8.748;2022-10-17T10:32:51;440.90;;;134.80;;
3074;SDS011;1548;51.716;8.748;2022-10-17T10:37:45;464.33;;;137.33;;
3074;SDS011;1548;51.716;8.748;2022-10-17T10:40:26;485.23;;;87.73;;
3074;SDS011;1548;51.716;8.748;2022-10-17T10:42:56;499.73;;;120.20;;
3074;SDS011;1548;51.716;8.748;2022-10-17T10:45:27;483.23;;;127.50;;
3074;SDS011;1548;51.716;8.748;2022-10-17T10:51:18;494.77;;;131.77;;
3074;SDS011;1548;51.716;8.748;2022-10-17T10:54:20;502.03;;;117.30;;
3074;SDS011;1548;51.716;8.748;2022-10-17T10:56:51;512.80;;;94.50;;
3074;SDS011;1548;51.716;8.748;2022-10-17T10:59:36;508.47;;;101.80;;
3074;SDS011;1548;51.716;8.748;2022-10-17T11:02:20;520.30;;;101.13;;
3074;SDS011;1548;51.716;8.748;2022-10-17T11:05:36;515.17;;;105.83;;
3074;SDS011;1548;51.716;8.748;2022-10-17T11:07:40;527.47;;;127.63;;
3074;SDS011;1548;51.716;8.748;2022-10-17T11:10:32;511.60;;;99.27;;
3074;SDS011;1548;51.716;8.748;2022-10-17T11:13:10;520.30;;;99.70;;
3074;SDS011;1548;51.716;8.748;2022-10-17T11:15:44;500.50;;;88.40;;
3074;SDS011;1548;51.716;8.748;2022-10-17T11:23:46;504.23;;;97.93;;
3074;SDS011;1548;51.716;8.748;2022-10-17T11:26:27;525.47;;;113.17;;
3074;SDS011;1548;51.716;8.748;2022-10-17T11:28:56;521.27;;;123.30;;
3074;SDS011;1548;51.716;8.748;2022-10-17T11:31:28;517.57;;;137.40;;
3074;SDS011;1548;51.716;8.748;2022-10-17T11:34:02;529.07;;;157.93;;
3074;SDS011;1548;51.716;8.748;2022-10-17T11:36:35;514.03;;;162.57;;
3074;SDS011;1548;51.716;8.748;2022-10-17T11:46:54;502.70;;;167.63;;
3074;SDS011;1548;51.716;8.748;2022-10-17T11:49:27;502.30;;;158.63;;
3074;SDS011;1548;51.716;8.748;2022-10-17T11:54:49;500.83;;;169.37;;
3074;SDS011;1548;51.716;8.748;2022-10-17T12:03:04;505.07;;;171.40;;
3074;SDS011;1548;51.716;8.748;2022-10-17T12:14:01;456.30;;;179.20;;
3074;SDS011;1548;51.716;8.748;2022-10-17T12:21:26;470.80;;;177.07;;
3074;SDS011;1548;51.716;8.748;2022-10-17T12:23:53;467.43;;;174.57;;
3074;SDS011;1548;51.716;8.748;2022-10-17T12:26:26;479.20;;;169.97;;
3074;SDS011;1548;51.716;8.748;2022-10-17T12:28:54;491.70;;;171.40;;
3074;SDS011;1548;51.716;8.748;2022-10-17T12:31:24;502.10;;;170.23;;
3074;SDS011;1548;51.716;8.748;2022-10-17T12:33:51;500.10;;;173.63;;
3074;SDS011;1548;51.716;8.748;2022-10-17T12:44:34;515.93;;;133.57;;
3074;SDS011;1548;51.716;8.748;2022-10-17T13:00:13;493.43;;;168.00;;
3074;SDS011;1548;51.716;8.748;2022-10-17T13:03:04;513.33;;;144.93;;
3074;SDS011;1548;51.716;8.748;2022-10-17T13:05:37;506.87;;;178.90;;
3074;SDS011;1548;51.716;8.748;2022-10-17T13:08:07;500.80;;;158.27;;
3074;SDS011;1548;51.716;8.748;2022-10-17T13:10:47;511.63;;;141.93;;
3074;SDS011;1548;51.716;8.748;2022-10-17T13:13:17;507.63;;;149.40;;
3074;SDS011;1548;51.716;8.748;2022-10-17T13:15:59;505.97;;;149.53;;
3074;SDS011;1548;51.716;8.748;2022-10-17T13:18:26;506.00;;;150.33;;
3074;SDS011;1548;51.716;8.748;2022-10-17T13:21:04;514.07;;;141.70;;
3074;SDS011;1548;51.716;8.748;2022-10-17T13:23:33;509.10;;;156.37;;
3074;SDS011;1548;51.716;8.748;2022-10-17T13:26:01;515.57;;;142.90;;
3074;SDS011;1548;51.716;8.748;2022-10-17T13:28:31;512.27;;;140.50;;
3074;SDS011;1548;51.716;8.748;2022-10-17T13:30:57;508.73;;;154.57;;
3074;SDS011;1548;51.716;8.748;2022-10-17T13:33:30;513.30;;;128.27;;
3074;SDS011;1548;51.716;8.748;2022-10-17T13:36:05;521.30;;;130.57;;
3074;SDS011;1548;51.716;8.748;2022-10-17T13:38:37;519.43;;;145.80;;
3074;SDS011;1548;51.716;8.748;2022-10-17T13:41:08;514.07;;;129.70;;
3074;SDS011;1548;51.716;8.748;2022-10-17T13:43:37;512.60;;;138.53;;
3074;SDS011;1548;51.716;8.748;2022-10-17T13:46:03;502.03;;;175.50;;
3074;SDS011;1548;51.716;8.748;2022-10-17T13:48:34;482.73;;;176.00;;
3074;SDS011;1548;51.716;8.748;2022-10-17T13:51:03;499.83;;;165.17;;
3074;SDS011;1548;51.716;8.748;2022-10-17T13:53:37;517.17;;;151.00;;
3074;SDS011;1548;51.716;8.748;2022-10-17T13:58:57;507.90;;;154.30;;
3074;SDS011;1548;51.716;8.748;2022-10-17T14:01:26;504.33;;;147.13;;
3074;SDS011;1548;51.716;8.748;2022-10-17T14:03:53;512.00;;;132.63;;
3074;SDS011;1548;51.716;8.748;2022-10-17T14:06:22;507.27;;;148.43;;
3074;SDS011;1548;51.716;8.748;2022-10-17T14:13:53;517.27;;;104.97;;
3074;SDS011;1548;51.716;8.748;2022-10-17T14:16:21;510.03;;;110.67;;
3074;SDS011;1548;51.716;8.748;2022-10-17T14:18:49;509.03;;;90.23;;
3074;SDS011;1548;51.716;8.748;2022-10-17T14:21:23;504.97;;;97.17;;
3074;SDS011;1548;51.716;8.748;2022-10-17T14:24:13;517.83;;;102.07;;
3074;SDS011;1548;51.716;8.748;2022-10-17T14:26:59;513.37;;;93.83;;
3074;SDS011;1548;51.716;8.748;2022-10-17T14:29:26;522.33;;;114.40;;
3074;SDS011;1548;51.716;8.748;2022-10-17T14:32:27;520.30;;;111.30;;
3074;SDS011;1548;51.716;8.748;2022-10-17T14:34:50;517.13;;;118.00;;
3074;SDS011;1548;51.716;8.748;2022-10-17T14:39:52;516.83;;;119.43;;
3074;SDS011;1548;51.716;8.748;2022-10-17T14:42:19;516.13;;;128.40;;
3074;SDS011;1548;51.716;8.748;2022-10-17T14:44:48;506.87;;;144.40;;
3074;SDS011;1548;51.716;8.748;2022-10-17T14:47:16;508.73;;;138.90;;
3074;SDS011;1548;51.716;8.748;2022-10-17T14:49:48;502.20;;;150.50;;
3074;SDS011;1548;51.716;8.748;2022-10-17T14:54:40;516.53;;;107.87;;
3074;SDS011;1548;51.716;8.748;2022-10-17T14:57:18;519.17;;;108.57;;
3074;SDS011;1548;51.716;8.748;2022-10-17T14:59:46;517.10;;;112.93;;
3074;SDS011;1548;51.716;8.748;2022-10-17T15:02:13;518.47;;;120.23;;
3074;SDS011;1548;51.716;8.748;2022-10-17T15:04:38;509.90;;;129.93;;
3074;SDS011;1548;51.716;8.748;2022-10-17T15:07:04;515.60;;;102.83;;
3074;SDS011;1548;51.716;8.748;2022-10-17T15:09:30;508.93;;;131.70;;
3074;SDS011;1548;51.716;8.748;2022-10-17T15:11:59;510.50;;;112.43;;
3074;SDS011;1548;51.716;8.748;2022-10-17T15:14:26;512.43;;;115.80;;
3074;SDS011;1548;51.716;8.748;2022-10-17T15:16:52;512.83;;;106.93;;
3074;SDS011;1548;51.716;8.748;2022-10-17T15:19:18;510.97;;;121.70;;
3074;SDS011;1548;51.716;8.748;2022-10-17T15:21:45;513.73;;;133.27;;
3074;SDS011;1548;51.716;8.748;2022-10-17T15:24:11;503.23;;;149.23;;
3074;SDS011;1548;51.716;8.748;2022-10-17T15:26:39;495.27;;;165.20;;
3074;SDS011;1548;51.716;8.748;2022-10-17T15:29:05;502.67;;;151.77;;
3074;SDS011;1548;51.716;8.748;2022-10-17T15:31:31;509.77;;;143.27;;
3074;SDS011;1548;51.716;8.748;2022-10-17T15:33:57;502.77;;;149.30;;
3074;SDS011;1548;51.716;8.748;2022-10-17T15:36:27;513.87;;;133.33;;
3074;SDS011;1548;51.716;8.748;2022-10-17T15:38:55;505.37;;;141.97;;
3074;SDS011;1548;51.716;8.748;2022-10-17T15:41:29;501.73;;;151.60;;
3074;SDS011;1548;51.716;8.748;2022-10-17T15:43:59;504.30;;;158.17;;
3074;SDS011;1548;51.716;8.748;2022-10-17T15:46:25;506.30;;;149.03;;
3074;SDS011;1548;51.716;8.748;2022-10-17T15:48:57;474.70;;;126.27;;
3074;SDS011;1548;51.716;8.748;2022-10-17T15:51:28;512.90;;;133.07;;
3074;SDS011;1548;51.716;8.748;2022-10-17T15:53:53;514.43;;;117.57;;
3074;SDS011;1548;51.716;8.748;2022-10-17T15:56:20;510.20;;;112.00;;
3074;SDS011;1548;51.716;8.748;2022-10-17T15:58:50;516.63;;;132.43;;
3074;SDS011;1548;51.716;8.748;2022-10-17T16:01:20;512.23;;;120.10;;
3074;SDS011;1548;51.716;8.748;2022-10-17T16:03:48;514.47;;;125.77;;
3074;SDS011;1548;51.716;8.748;2022-10-17T16:06:18;514.33;;;121.30;;
3074;SDS011;1548;51.716;8.748;2022-10-17T16:08:46;504.63;;;142.13;;
3074;SDS011;1548;51.716;8.748;2022-10-17T16:11:32;507.90;;;126.30;;
3074;SDS011;1548;51.716;8.748;2022-10-17T16:14:03;508.73;;;138.93;;
3074;SDS011;1548;51.716;8.748;2022-10-17T16:16:31;506.57;;;125.03;;
3074;SDS011;1548;51.716;8.748;2022-10-17T16:18:57;510.63;;;111.80;;
3074;SDS011;1548;51.716;8.748;2022-10-17T16:21:26;510.57;;;109.40;;
3074;SDS011;1548;51.716;8.748;2022-10-17T16:23:54;512.00;;;110.07;;
3074;SDS011;1548;51.716;8.748;2022-10-17T16:26:21;510.00;;;113.80;;
3074;SDS011;1548;51.716;8.748;2022-10-17T16:28:47;506.73;;;85.67;;
3074;SDS011;1548;51.716;8.748;2022-10-17T16:31:16;512.00;;;99.27;;
3074;SDS011;1548;51.716;8.748;2022-10-17T16:33:45;516.03;;;98.60;;
3074;SDS011;1548;51.716;8.748;2022-10-17T16:36:11;506.50;;;109.27;;
3074;SDS011;1548;51.716;8.748;2022-10-17T16:38:37;490.13;;;90.10;;